Parish, New York
Current Conditions -  °F | °C
As of 9:54 PM on Sunday 21 Dec 2014 (Local Time) from KFZY Reporting Station
Haze Haze  
Wind Chill: 30°   Ceiling: 2500
Heat Index: 30°   Visibility: 6mi
Dew Point: 25°   Wind: 0mph
Humidity: 82%   Direction: NA
Pressure: 30.34"   Gusts: NA
Location:  43.41°N, 76.13°W
Report Text: KFZY 220254Z AUTO 00000KT 6SM HZ OVC025 M01/M04 A3034 RMK AO2 SLP280 T10111039 53002
Loading
Personal Weather Stations






























Interactive Weather Map New forecast layout! Learn more

10-Day Weather Forecast

Advertisements
Track Severe Weather on mobile